Time;durP1;ratioP1;P1;durP2;ratioP2;P2;SDS_P1;SDS_P2;PMS_P1;PMS_P2;Temp;Humidity;BMP_temperature;BMP_pressure;BME280_temperature;BME280_humidity;BME280_pressure;Samples;Min_cycle;Max_cycle;Signal;HPM_P1;HPM_P2
2023/10/13 00:01:06;;;;;;;4.68;2.28;;;19.30;99.90;;;;;;5119079;28;20075;-71
2023/10/13 00:03:32;;;;;;;3.13;2.03;;;19.30;99.90;;;;;;5119321;28;20031;-70
2023/10/13 00:06:03;;;;;;;4.95;2.20;;;19.30;99.90;;;;;;5119285;28;20480;-70
2023/10/13 00:08:29;;;;;;;6.82;2.55;;;19.30;99.90;;;;;;5119108;28;20058;-69
2023/10/13 00:10:59;;;;;;;5.07;2.08;;;19.30;99.90;;;;;;5119060;28;20023;-69
2023/10/13 00:13:26;;;;;;;4.43;2.10;;;19.30;99.90;;;;;;5119116;28;20024;-70
2023/10/13 00:15:58;;;;;;;5.95;2.13;;;19.30;99.90;;;;;;5118875;28;20015;-70
2023/10/13 00:18:41;;;;;;;5.25;1.92;;;19.30;99.90;;;;;;5120332;27;20030;-70
2023/10/13 00:21:13;;;;;;;5.80;1.80;;;19.30;99.90;;;;;;5119154;28;20621;-70
2023/10/13 00:23:52;;;;;;;4.32;2.00;;;19.30;99.90;;;;;;5119040;28;20039;-69
2023/10/13 00:26:25;;;;;;;4.47;2.05;;;19.40;99.90;;;;;;5119058;28;20031;-69
2023/10/13 00:28:58;;;;;;;4.97;1.90;;;19.30;99.90;;;;;;5118294;28;20073;-70
2023/10/13 00:31:43;;;;;;;5.15;2.20;;;19.30;99.90;;;;;;5100502;28;20258;-70
2023/10/13 00:34:20;;;;;;;4.82;2.03;;;19.30;99.90;;;;;;5118681;28;20053;-70
2023/10/13 00:36:48;;;;;;;5.18;2.17;;;19.20;99.90;;;;;;5118563;28;20016;-69
2023/10/13 00:39:18;;;;;;;5.43;2.10;;;19.10;99.90;;;;;;5100100;28;20092;-69
2023/10/13 00:41:57;;;;;;;4.63;2.10;;;19.10;99.90;;;;;;5099839;28;20476;-69
2023/10/13 00:44:37;;;;;;;5.63;1.92;;;19.10;99.90;;;;;;5118443;28;20092;-70
2023/10/13 00:47:07;;;;;;;4.75;1.85;;;19.00;99.90;;;;;;5118417;28;20016;-70
2023/10/13 00:49:39;;;;;;;5.90;2.10;;;19.00;99.90;;;;;;5118321;28;20023;-69
2023/10/13 00:52:06;;;;;;;4.18;1.90;;;19.00;99.90;;;;;;5118586;28;20015;-70
2023/10/13 00:54:35;;;;;;;4.93;1.90;;;19.00;99.90;;;;;;5100017;28;20031;-70
2023/10/13 00:57:07;;;;;;;6.22;1.95;;;19.00;99.90;;;;;;5118688;28;20031;-70
2023/10/13 00:59:36;;;;;;;6.25;2.20;;;19.00;99.90;;;;;;5117789;28;20078;-70
2023/10/13 01:02:37;;;;;;;5.40;1.80;;;19.00;99.90;;;;;;5118229;28;20024;-70
2023/10/13 01:04:48;;;;;;;5.55;2.13;;;19.00;99.90;;;;;;5118219;28;20108;-70
2023/10/13 01:07:15;;;;;;;5.95;2.10;;;19.00;99.90;;;;;;5118367;28;20068;-70
2023/10/13 01:09:42;;;;;;;5.65;2.15;;;19.00;99.90;;;;;;5118590;27;20045;-70
2023/10/13 01:12:08;;;;;;;6.72;2.20;;;19.00;99.90;;;;;;5118201;28;20111;-71
2023/10/13 01:14:35;;;;;;;6.40;2.47;;;19.00;99.90;;;;;;5118060;28;20103;-71
2023/10/13 01:17:02;;;;;;;6.00;1.83;;;19.00;99.90;;;;;;5100702;27;20115;-71
2023/10/13 01:19:28;;;;;;;11.63;2.70;;;19.10;99.90;;;;;;5104612;28;20453;-71
2023/10/13 01:22:04;;;;;;;6.07;2.10;;;19.10;99.90;;;;;;5118034;28;20472;-71
2023/10/13 01:24:37;;;;;;;6.60;2.28;;;19.10;99.90;;;;;;5118048;28;20043;-71
2023/10/13 01:27:17;;;;;;;7.63;2.60;;;19.10;99.90;;;;;;5099547;28;20069;-71
2023/10/13 01:29:48;;;;;;;5.95;2.78;;;19.10;99.90;;;;;;5099344;28;20464;-71
2023/10/13 01:32:15;;;;;;;6.20;2.30;;;19.10;99.90;;;;;;5099201;28;20100;-70
2023/10/13 01:34:45;;;;;;;6.50;2.30;;;19.20;99.90;;;;;;5117812;28;20384;-70
2023/10/13 01:37:11;;;;;;;6.32;2.42;;;19.10;99.90;;;;;;5099301;28;20388;-70
2023/10/13 01:39:37;;;;;;;4.50;2.17;;;19.20;99.90;;;;;;5116838;28;20031;-71
2023/10/13 01:42:03;;;;;;;6.55;2.50;;;19.10;99.90;;;;;;5110439;28;20020;-71
2023/10/13 01:44:30;;;;;;;5.40;2.55;;;19.10;99.90;;;;;;5117434;28;20015;-71
2023/10/13 01:46:59;;;;;;;5.32;2.35;;;19.10;99.90;;;;;;5117165;28;20046;-71
2023/10/13 01:49:27;;;;;;;8.52;2.70;;;19.00;99.90;;;;;;5117494;28;20468;-70
2023/10/13 01:51:53;;;;;;;5.55;2.40;;;19.00;99.90;;;;;;5117432;28;20395;-70
2023/10/13 01:54:21;;;;;;;5.88;2.50;;;18.90;99.90;;;;;;5117466;28;20026;-70
2023/10/13 01:56:48;;;;;;;6.82;2.85;;;18.90;99.90;;;;;;5099003;28;20040;-69
2023/10/13 01:59:15;;;;;;;7.78;2.92;;;18.80;99.90;;;;;;5117103;28;20476;-70
2023/10/13 02:01:41;;;;;;;6.45;2.72;;;18.80;99.90;;;;;;5117394;28;20028;-69
2023/10/13 02:04:08;;;;;;;7.18;2.60;;;18.90;99.90;;;;;;5117012;28;20030;-70
2023/10/13 02:06:36;;;;;;;4.97;2.50;;;18.80;99.90;;;;;;5117364;28;20073;-69
2023/10/13 02:11:41;;;;;;;5.88;2.42;;;18.80;99.90;;;;;;5117407;28;20074;-70
2023/10/13 02:14:07;;;;;;;3.83;2.15;;;18.80;99.90;;;;;;5117156;28;20404;-69
2023/10/13 02:16:32;;;;;;;4.88;2.40;;;18.80;99.90;;;;;;5117279;28;20016;-70
2023/10/13 02:19:03;;;;;;;5.63;2.50;;;18.80;99.90;;;;;;5118078;27;21323;-70
2023/10/13 02:21:34;;;;;;;3.78;2.25;;;18.90;99.90;;;;;;5116922;28;20392;-70
2023/10/13 02:23:59;;;;;;;7.22;2.83;;;18.90;99.90;;;;;;5116766;28;20027;-70
2023/10/13 02:26:38;;;;;;;6.13;2.50;;;19.00;99.90;;;;;;5116993;28;20016;-70
2023/10/13 02:29:07;;;;;;;6.20;2.80;;;19.00;99.90;;;;;;5116994;28;20402;-71
2023/10/13 02:31:35;;;;;;;6.38;2.67;;;19.00;99.90;;;;;;5117159;28;20031;-70
2023/10/13 02:34:06;;;;;;;5.40;2.55;;;19.00;99.90;;;;;;5116555;28;20024;-70
2023/10/13 02:36:36;;;;;;;7.03;2.67;;;18.90;99.90;;;;;;5116913;28;20024;-70
2023/10/13 02:39:08;;;;;;;6.65;2.78;;;18.90;99.90;;;;;;5117162;28;20472;-70
2023/10/13 02:41:39;;;;;;;5.80;2.60;;;18.80;99.90;;;;;;5099658;28;20034;-70
2023/10/13 02:44:06;;;;;;;4.70;3.00;;;18.80;99.90;;;;;;5116724;28;20024;-70
2023/10/13 02:46:35;;;;;;;5.60;3.03;;;18.70;99.90;;;;;;5116576;28;20023;-70
2023/10/13 02:49:09;;;;;;;5.88;2.83;;;18.70;99.90;;;;;;5116772;28;20104;-70
2023/10/13 02:51:35;;;;;;;5.97;2.70;;;18.70;99.90;;;;;;5119678;28;20027;-71
2023/10/13 02:54:03;;;;;;;9.10;2.75;;;18.70;99.90;;;;;;5120891;28;20081;-71
2023/10/13 02:56:29;;;;;;;6.00;2.90;;;18.70;99.90;;;;;;5120639;28;20550;-71
2023/10/13 02:59:04;;;;;;;5.18;2.72;;;18.80;99.90;;;;;;5120896;28;20020;-71
2023/10/13 03:01:33;;;;;;;4.68;2.90;;;18.80;99.90;;;;;;5120633;28;20499;-70
2023/10/13 03:04:00;;;;;;;4.70;2.53;;;18.80;99.90;;;;;;5120554;28;20023;-71
2023/10/13 03:06:33;;;;;;;8.60;2.92;;;18.80;99.90;;;;;;5120796;28;20023;-70
2023/10/13 03:09:17;;;;;;;6.55;3.00;;;18.90;99.90;;;;;;5120066;27;20491;-71
2023/10/13 03:11:48;;;;;;;4.80;2.95;;;18.90;99.90;;;;;;5130519;27;20055;-71
2023/10/13 03:14:31;;;;;;;4.03;2.63;;;18.90;99.90;;;;;;5120470;28;20023;-71
2023/10/13 03:17:03;;;;;;;5.78;2.83;;;18.90;99.90;;;;;;5102408;27;20085;-71
2023/10/13 03:19:38;;;;;;;4.53;2.90;;;18.90;99.90;;;;;;5107738;28;20020;-71
2023/10/13 03:22:09;;;;;;;5.97;3.30;;;18.80;99.90;;;;;;5120211;28;20062;-71
2023/10/13 03:24:47;;;;;;;5.32;2.80;;;18.80;99.90;;;;;;5101966;28;20119;-71
2023/10/13 03:27:17;;;;;;;4.82;3.08;;;18.80;99.90;;;;;;5120158;28;20019;-71
2023/10/13 03:29:54;;;;;;;5.95;3.22;;;18.70;99.90;;;;;;5120130;28;20027;-70
2023/10/13 03:32:20;;;;;;;5.45;3.15;;;18.70;99.90;;;;;;5119884;28;20016;-70
2023/10/13 03:35:06;;;;;;;5.82;2.90;;;18.60;99.90;;;;;;5120122;28;20031;-70
2023/10/13 03:37:38;;;;;;;5.03;3.05;;;18.50;99.90;;;;;;5107572;28;20103;-70
2023/10/13 03:43:04;;;;;;;5.60;3.20;;;18.40;99.90;;;;;;5119778;28;20111;-70
2023/10/13 03:45:47;;;;;;;7.03;3.43;;;18.40;99.90;;;;;;5120030;28;20028;-70
2023/10/13 03:51:14;;;;;;;5.88;3.10;;;18.30;99.90;;;;;;5119858;28;20110;-70
2023/10/13 03:53:53;;;;;;;5.28;2.70;;;18.30;99.90;;;;;;5119967;28;20050;-70
2023/10/13 03:56:28;;;;;;;6.10;3.10;;;18.30;99.90;;;;;;5119414;28;20016;-70
2023/10/13 03:59:00;;;;;;;7.90;3.15;;;18.30;99.90;;;;;;5119682;28;20045;-70
2023/10/13 04:01:34;;;;;;;4.90;3.40;;;18.20;99.90;;;;;;5118973;28;20043;-70
2023/10/13 04:04:09;;;;;;;6.63;3.47;;;18.20;99.90;;;;;;5118973;28;20027;-70
2023/10/13 04:17:14;;;;;;;6.72;3.63;;;17.90;99.90;;;;;;5120877;27;20023;-69
2023/10/13 04:28:50;;;;;;;8.52;3.40;;;17.90;99.90;;;;;;5119413;28;20679;-70
2023/10/13 04:39:09;;;;;;;5.78;3.75;;;18.00;99.90;;;;;;5094675;28;20035;-69
2023/10/13 04:41:41;;;;;;;5.43;3.22;;;18.10;99.90;;;;;;5100045;28;20115;-69
2023/10/13 04:49:51;;;;;;;5.45;3.53;;;18.30;99.90;;;;;;5118674;28;20475;-69
2023/10/13 04:55:17;;;;;;;5.18;3.40;;;18.50;99.90;;;;;;5118644;28;20041;-69
2023/10/13 05:51:33;;;;;;;6.95;3.45;;;19.20;99.90;;;;;;5117417;28;20388;-71
2023/10/13 06:29:53;;;;;;;7.60;3.60;;;19.40;99.90;;;;;;5116726;28;20093;-70
2023/10/13 06:32:19;;;;;;;6.82;3.60;;;19.40;99.90;;;;;;5116691;28;20381;-70
2023/10/13 06:34:46;;;;;;;8.25;3.67;;;19.50;99.90;;;;;;5098420;28;20053;-70
2023/10/13 06:37:31;;;;;;;6.75;4.03;;;19.50;99.90;;;;;;5116778;28;20050;-69
2023/10/13 06:40:07;;;;;;;6.47;3.55;;;19.50;99.90;;;;;;5116470;28;20032;-69
2023/10/13 06:42:42;;;;;;;6.82;3.90;;;19.50;99.90;;;;;;5116427;28;20055;-69
2023/10/13 06:45:08;;;;;;;6.40;3.80;;;19.50;99.90;;;;;;5098282;28;20061;-69
2023/10/13 06:47:43;;;;;;;7.35;4.03;;;19.50;99.90;;;;;;5098048;28;20028;-70
2023/10/13 06:50:24;;;;;;;6.30;3.40;;;19.50;99.90;;;;;;5116252;28;20016;-70
2023/10/13 06:52:51;;;;;;;6.25;3.85;;;19.50;99.90;;;;;;5108863;28;20028;-69
2023/10/13 06:55:23;;;;;;;7.63;4.00;;;19.50;99.90;;;;;;5096898;28;20060;-69
2023/10/13 06:57:51;;;;;;;11.32;3.97;;;19.60;99.90;;;;;;5116083;28;20023;-70
2023/10/13 07:00:28;;;;;;;5.25;3.30;;;19.60;99.90;;;;;;5111130;28;20060;-71
2023/10/13 07:03:05;;;;;;;5.47;3.72;;;19.60;99.90;;;;;;5113844;28;20080;-71
2023/10/13 07:05:41;;;;;;;7.70;3.67;;;19.60;99.90;;;;;;5116637;28;20016;-70
2023/10/13 07:08:07;;;;;;;8.07;4.15;;;19.60;99.90;;;;;;5116568;28;20039;-70
2023/10/13 07:10:44;;;;;;;7.50;4.18;;;19.60;99.90;;;;;;5111432;28;20023;-70
2023/10/13 07:13:13;;;;;;;9.02;4.25;;;19.70;99.90;;;;;;5116571;28;20024;-71
2023/10/13 07:15:44;;;;;;;8.52;3.85;;;19.70;99.90;;;;;;5116229;28;20046;-70
2023/10/13 07:18:13;;;;;;;6.55;3.80;;;19.60;99.90;;;;;;5116590;28;20050;-70
2023/10/13 07:20:46;;;;;;;5.93;4.07;;;19.60;99.90;;;;;;5116206;28;20028;-70
2023/10/13 07:23:20;;;;;;;7.40;4.28;;;19.60;99.90;;;;;;5116247;28;20028;-71
2023/10/13 07:26:02;;;;;;;6.63;4.10;;;19.70;99.90;;;;;;5115923;28;20047;-71
2023/10/13 07:28:35;;;;;;;10.15;4.50;;;19.80;99.90;;;;;;5116222;28;20035;-71
2023/10/13 07:33:31;;;;;;;7.05;3.85;;;19.90;99.90;;;;;;5115856;28;20031;-72
2023/10/13 07:36:11;;;;;;;7.07;4.35;;;20.00;99.90;;;;;;5116478;28;20047;-71
2023/10/13 07:38:37;;;;;;;10.77;4.70;;;20.00;99.90;;;;;;5118535;28;20024;-72
2023/10/13 07:41:09;;;;;;;7.00;4.38;;;20.10;99.90;;;;;;5119503;28;20041;-72
2023/10/13 07:43:39;;;;;;;5.90;4.35;;;20.10;99.90;;;;;;5101006;28;20063;-72
2023/10/13 07:46:12;;;;;;;8.02;4.15;;;20.20;99.90;;;;;;5119659;28;20047;-72
2023/10/13 07:48:40;;;;;;;7.30;3.97;;;20.30;99.90;;;;;;5119476;28;20079;-72
2023/10/13 07:51:11;;;;;;;7.78;4.32;;;20.30;99.90;;;;;;5119467;28;20024;-72
2023/10/13 07:53:40;;;;;;;8.77;4.18;;;20.40;99.90;;;;;;5101202;28;20039;-72
2023/10/13 07:56:11;;;;;;;7.07;3.75;;;20.40;99.90;;;;;;5119342;28;20033;-72
2023/10/13 07:58:52;;;;;;;5.28;3.92;;;20.60;99.90;;;;;;5118536;28;20051;-71
2023/10/13 08:01:19;;;;;;;10.35;4.10;;;20.60;99.90;;;;;;5119196;28;20047;-72
2023/10/13 08:03:46;;;;;;;8.63;3.88;;;20.70;99.90;;;;;;5119238;28;20088;-71
2023/10/13 08:08:43;;;;;;;8.73;4.20;;;20.80;99.90;;;;;;5119400;28;20026;-72
2023/10/13 08:13:53;;;;;;;8.63;3.80;;;20.90;99.90;;;;;;5119176;28;20032;-70
2023/10/13 08:16:23;;;;;;;7.03;4.32;;;21.00;99.90;;;;;;5100844;28;20387;-69
2023/10/13 08:18:51;;;;;;;7.55;4.15;;;21.00;99.90;;;;;;5128810;27;21488;-70
2023/10/13 08:21:22;;;;;;;9.07;4.15;;;21.00;99.90;;;;;;5116120;27;20035;-69
2023/10/13 08:26:30;;;;;;;9.30;4.20;;;21.10;99.90;;;;;;5119388;27;20028;-69
2023/10/13 08:47:53;;;;;;;12.43;3.92;;;21.10;99.90;;;;;;5118011;28;20015;-69
2023/10/13 08:50:47;;;;;;;7.68;4.72;;;21.20;99.90;;;;;;5118492;28;20028;-69
2023/10/13 08:54:08;;;;;;;;;;;21.30;99.90;;;;;;5100422;28;20027;-68
2023/10/13 08:56:17;;;;;;;10.48;4.40;;;21.30;99.90;;;;;;5109439;28;19911;-69
2023/10/13 09:07:07;;;;;;;9.33;3.87;;;21.40;99.90;;;;;;5118366;28;20076;-69
2023/10/13 09:15:17;;;;;;;5.55;3.72;;;21.50;99.90;;;;;;5121947;28;20035;-70
2023/10/13 09:18:42;;;;;;;7.53;3.70;;;21.50;99.90;;;;;;5122029;27;20059;-71
2023/10/13 09:23:25;;;;;;;12.88;3.88;;;21.60;99.90;;;;;;5123855;28;20024;-73
2023/10/13 09:25:57;;;;;;;10.05;3.55;;;21.70;99.90;;;;;;5105496;28;20479;-73
2023/10/13 09:28:27;;;;;;;9.52;3.22;;;21.70;99.90;;;;;;5123703;28;20383;-73
2023/10/13 09:30:56;;;;;;;8.65;3.35;;;21.80;99.90;;;;;;5105695;28;20032;-72
2023/10/13 09:33:39;;;;;;;11.80;3.22;;;21.80;99.90;;;;;;5123743;28;20020;-72
2023/10/13 09:36:13;;;;;;;7.43;3.17;;;21.80;99.90;;;;;;5123380;28;20027;-72
2023/10/13 09:38:41;;;;;;;9.07;3.60;;;21.90;99.90;;;;;;5124000;28;20023;-73
2023/10/13 09:41:26;;;;;;;11.73;4.10;;;21.90;99.90;;;;;;5118048;28;20024;-71
2023/10/13 09:43:53;;;;;;;10.90;3.53;;;21.90;99.90;;;;;;5111482;28;20023;-73
2023/10/13 09:46:26;;;;;;;10.38;3.53;;;21.90;99.90;;;;;;5105388;28;20053;-74
2023/10/13 09:49:04;;;;;;;8.27;3.30;;;21.80;99.90;;;;;;5123800;28;20016;-75
2023/10/13 09:51:33;;;;;;;10.95;3.40;;;21.80;99.90;;;;;;5119938;28;20024;-66
2023/10/13 09:54:09;;;;;;;12.35;3.13;;;21.80;99.90;;;;;;5120566;28;20039;-70
2023/10/13 09:56:54;;;;;;;10.52;3.42;;;21.80;99.90;;;;;;5124521;28;20456;-68
2023/10/13 09:59:34;;;;;;;10.30;3.08;;;21.80;99.90;;;;;;5114732;28;20016;-70
2023/10/13 10:02:08;;;;;;;9.25;3.58;;;21.80;99.90;;;;;;5122613;28;20035;-71
2023/10/13 10:04:42;;;;;;;12.30;3.13;;;21.80;99.90;;;;;;5127182;28;20020;-63
2023/10/13 10:07:08;;;;;;;12.32;2.97;;;21.80;99.90;;;;;;5119300;28;20024;-64
2023/10/13 10:09:34;;;;;;;9.27;3.13;;;21.90;99.90;;;;;;5124554;27;20050;-65
2023/10/13 10:12:22;;;;;;;9.20;3.15;;;21.80;99.90;;;;;;5125943;27;20487;-64
2023/10/13 10:15:13;;;;;;;11.02;3.38;;;21.80;99.90;;;;;;5101217;28;20072;-63
2023/10/13 10:17:43;;;;;;;11.25;3.80;;;21.80;99.90;;;;;;5098053;28;20030;-64
2023/10/13 10:20:19;;;;;;;12.32;3.88;;;21.80;99.90;;;;;;5114557;28;20365;-64
2023/10/13 10:22:59;;;;;;;11.05;3.35;;;21.80;99.90;;;;;;5116696;28;20019;-63
2023/10/13 10:25:35;;;;;;;8.60;3.15;;;21.70;99.90;;;;;;5116874;28;20503;-63
2023/10/13 10:28:06;;;;;;;10.13;3.50;;;21.70;99.90;;;;;;5116891;28;20392;-63
2023/10/13 10:30:38;;;;;;;9.10;3.30;;;21.70;99.90;;;;;;5114405;28;20024;-63
2023/10/13 10:33:12;;;;;;;10.80;3.47;;;21.70;99.90;;;;;;5081625;28;20496;-63
2023/10/13 10:35:45;;;;;;;12.35;3.97;;;21.70;99.90;;;;;;5116454;28;20034;-63
2023/10/13 10:38:13;;;;;;;;;;;21.80;99.90;;;;;;5114869;28;20020;-63
2023/10/13 10:40:59;;;;;;;14.45;3.53;;;21.80;99.90;;;;;;5117812;28;20402;-65
2023/10/13 10:43:29;;;;;;;7.57;2.95;;;21.80;99.90;;;;;;5120158;28;20023;-64
2023/10/13 10:45:59;;;;;;;11.82;3.65;;;21.80;99.90;;;;;;5120570;28;20024;-65
2023/10/13 10:48:31;;;;;;;8.27;3.00;;;21.80;99.90;;;;;;5121392;28;20574;-65
2023/10/13 10:50:58;;;;;;;13.20;3.83;;;21.80;99.90;;;;;;5121580;28;20019;-67
2023/10/13 10:53:43;;;;;;;12.45;3.85;;;21.80;99.90;;;;;;5121605;28;20120;-67
2023/10/13 10:59:29;;;;;;;14.80;3.78;;;21.90;99.90;;;;;;5101035;28;20032;-69
2023/10/13 11:01:54;;;;;;;9.57;3.30;;;22.00;99.90;;;;;;5120400;28;20396;-68
2023/10/13 11:06:57;;;;;;;10.98;3.70;;;22.20;99.90;;;;;;5117769;28;20442;-68
2023/10/13 11:09:36;;;;;;;10.75;3.40;;;22.30;99.90;;;;;;5119482;28;20027;-67
2023/10/13 11:12:24;;;;;;;10.40;3.25;;;22.30;99.90;;;;;;5112522;28;20043;-68
2023/10/13 11:15:01;;;;;;;11.25;3.08;;;22.40;99.90;;;;;;5093647;28;20032;-67
2023/10/13 11:17:38;;;;;;;9.35;3.28;;;22.50;99.90;;;;;;5121708;28;20024;-66
2023/10/13 11:20:16;;;;;;;9.10;3.42;;;22.50;99.90;;;;;;5120878;28;20028;-67
2023/10/13 11:22:47;;;;;;;13.80;3.63;;;22.50;99.90;;;;;;5102478;28;20436;-68
2023/10/13 11:25:22;;;;;;;12.70;3.92;;;22.60;99.90;;;;;;5121076;28;20348;-68
2023/10/13 11:31:00;;;;;;;14.75;3.80;;;22.60;99.90;;;;;;5120342;28;20558;-68
2023/10/13 11:33:05;;;;;;;13.15;3.67;;;22.60;99.90;;;;;;5108893;28;20042;-68
2023/10/13 11:35:55;;;;;;;13.50;4.20;;;22.50;99.90;;;;;;5122307;28;20019;-69
2023/10/13 11:38:27;;;;;;;9.63;3.90;;;22.30;99.90;;;;;;5128030;27;20598;-70
2023/10/13 11:48:41;;;;;;;11.43;4.68;;;21.90;99.90;;;;;;5113657;28;20511;-67
2023/10/13 11:51:09;;;;;;;16.25;4.90;;;21.80;99.90;;;;;;5124486;28;20468;-68
2023/10/13 11:53:35;;;;;;;11.90;4.72;;;21.80;99.90;;;;;;5126630;28;20035;-67
2023/10/13 11:56:09;;;;;;;12.57;4.60;;;21.80;99.90;;;;;;5125080;28;20034;-70
2023/10/13 11:58:35;;;;;;;11.80;4.13;;;21.90;99.90;;;;;;5124066;28;20024;-69
2023/10/13 12:01:19;;;;;;;10.55;4.35;;;21.90;99.90;;;;;;5130122;27;20058;-68
2023/10/13 12:09:52;;;;;;;14.30;4.93;;;21.90;99.90;;;;;;5120317;28;20081;-67
2023/10/13 12:12:00;;;;;;;14.75;6.53;;;21.90;99.90;;;;;;5110575;28;20035;-68
2023/10/13 12:14:37;;;;;;;17.45;8.05;;;21.90;99.90;;;;;;5100977;28;20028;-67
2023/10/13 12:17:10;;;;;;;16.35;9.60;;;22.00;99.90;;;;;;5101789;27;20051;-67
2023/10/13 12:19:38;;;;;;;18.85;11.48;;;22.00;99.90;;;;;;5101039;28;20020;-67
2023/10/13 12:22:08;;;;;;;22.52;14.02;;;21.80;99.90;;;;;;5118686;28;20028;-67
2023/10/13 12:27:00;;;;;;;18.67;11.25;;;21.50;99.90;;;;;;5119114;28;20023;-68
2023/10/13 12:29:29;;;;;;;27.45;12.65;;;21.50;99.90;;;;;;5119064;28;20012;-67
2023/10/13 12:32:07;;;;;;;22.83;11.07;;;21.50;99.90;;;;;;5118743;28;20096;-68
2023/10/13 12:38:06;;;;;;;14.15;8.23;;;21.40;99.90;;;;;;5087019;28;20100;-68
2023/10/13 12:54:14;;;;;;;16.35;8.30;;;21.50;99.90;;;;;;5118807;28;20573;-67
2023/10/13 12:56:43;;;;;;;18.63;8.95;;;21.50;99.90;;;;;;5118390;28;20120;-68
2023/10/13 12:59:15;;;;;;;15.55;8.25;;;21.50;99.90;;;;;;5118163;28;20073;-68
2023/10/13 13:01:43;;;;;;;18.10;8.38;;;21.50;99.90;;;;;;5101492;28;20408;-67
2023/10/13 13:04:18;;;;;;;15.38;8.80;;;21.50;99.90;;;;;;5117610;28;20726;-67
2023/10/13 13:06:44;;;;;;;20.90;9.25;;;21.40;99.90;;;;;;5099236;28;20020;-67
2023/10/13 13:09:09;;;;;;;18.42;7.97;;;21.40;99.90;;;;;;5118265;27;20026;-67
2023/10/13 13:11:39;;;;;;;17.33;8.82;;;21.40;99.90;;;;;;5101474;28;20037;-67
2023/10/13 13:14:09;;;;;;;17.05;8.48;;;21.40;99.90;;;;;;5117543;28;20019;-68
2023/10/13 13:16:38;;;;;;;13.55;7.53;;;21.40;99.90;;;;;;5117321;28;20016;-68
2023/10/13 13:19:09;;;;;;;18.10;7.80;;;21.50;99.90;;;;;;5118954;27;20012;-68
2023/10/13 13:21:37;;;;;;;16.70;8.43;;;21.50;99.90;;;;;;5117358;28;20014;-68
2023/10/13 13:24:04;;;;;;;15.77;7.55;;;21.40;99.90;;;;;;5101018;28;20072;-68
2023/10/13 13:26:31;;;;;;;16.38;8.05;;;21.40;99.90;;;;;;5117241;28;20020;-68
2023/10/13 13:28:56;;;;;;;17.55;9.10;;;21.40;99.90;;;;;;5117237;28;20014;-68
2023/10/13 13:31:29;;;;;;;15.50;8.73;;;21.40;99.90;;;;;;5098682;28;20020;-68
2023/10/13 13:33:55;;;;;;;20.27;10.02;;;21.50;99.90;;;;;;5100132;28;20510;-68
2023/10/13 13:36:22;;;;;;;16.42;8.95;;;21.50;99.90;;;;;;5117058;28;20138;-67
2023/10/13 13:38:54;;;;;;;21.75;10.85;;;21.50;99.90;;;;;;5117095;28;20027;-67
2023/10/13 13:41:21;;;;;;;18.77;9.95;;;21.50;99.90;;;;;;5114367;28;20023;-67
2023/10/13 13:43:54;;;;;;;21.58;10.02;;;21.50;99.90;;;;;;5117115;28;20123;-67
2023/10/13 13:46:24;;;;;;;18.90;9.32;;;21.50;99.90;;;;;;5114507;28;20030;-67
2023/10/13 13:49:06;;;;;;;15.80;9.63;;;21.70;99.90;;;;;;5117156;28;20011;-67
2023/10/13 13:51:33;;;;;;;15.82;8.63;;;21.90;99.90;;;;;;5098838;28;20028;-67
2023/10/13 13:53:59;;;;;;;16.75;8.70;;;22.10;99.90;;;;;;5117404;28;20030;-67
2023/10/13 13:56:27;;;;;;;14.80;8.52;;;22.10;99.90;;;;;;5117060;28;20019;-67
2023/10/13 13:58:54;;;;;;;13.52;7.07;;;22.10;99.90;;;;;;5116790;28;20043;-67
2023/10/13 14:01:25;;;;;;;12.07;5.80;;;22.10;99.90;;;;;;5116543;28;20055;-67
2023/10/13 14:03:52;;;;;;;11.10;5.47;;;22.20;99.90;;;;;;5116189;28;20031;-67
2023/10/13 14:06:23;;;;;;;9.80;5.40;;;22.20;99.90;;;;;;5117682;27;20051;-67
2023/10/13 14:08:50;;;;;;;9.98;5.20;;;22.30;99.90;;;;;;5092498;28;20107;-67
2023/10/13 14:14:28;;;;;;;10.93;4.60;;;22.40;99.90;;;;;;5083357;28;20119;-68
2023/10/13 14:17:02;;;;;;;8.95;4.55;;;22.50;99.90;;;;;;5115013;28;20023;-67
2023/10/13 14:19:28;;;;;;;8.43;3.13;;;22.60;99.90;;;;;;5098323;28;20053;-67
2023/10/13 14:21:57;;;;;;;6.90;2.85;;;22.60;99.90;;;;;;5112526;28;20387;-67
2023/10/13 14:24:27;;;;;;;12.00;3.30;;;22.50;99.90;;;;;;5102912;28;20031;-67
2023/10/13 14:27:01;;;;;;;9.38;2.92;;;22.40;99.90;;;;;;5114334;28;20073;-67
2023/10/13 14:29:27;;;;;;;7.43;2.40;;;22.40;99.90;;;;;;5116471;28;20072;-67
2023/10/13 14:31:53;;;;;;;6.80;2.45;;;22.60;99.90;;;;;;5116474;28;20035;-67
2023/10/13 14:34:21;;;;;;;9.00;2.35;;;22.50;99.90;;;;;;5116827;28;20023;-70
2023/10/13 14:36:48;;;;;;;6.60;2.13;;;22.50;99.90;;;;;;5125913;28;20069;-69
2023/10/13 14:39:14;;;;;;;6.13;1.90;;;22.60;99.90;;;;;;5115607;28;20026;-70
2023/10/13 14:41:40;;;;;;;5.60;1.73;;;22.50;98.90;;;;;;5115221;28;20103;-70
2023/10/13 14:44:07;;;;;;;7.53;1.73;;;22.40;99.60;;;;;;5098171;28;20023;-71
2023/10/13 14:46:38;;;;;;;5.05;1.63;;;22.30;99.90;;;;;;5117561;28;20034;-71
2023/10/13 14:49:05;;;;;;;6.38;1.48;;;22.20;99.50;;;;;;5120942;28;20024;-70
2023/10/13 14:51:31;;;;;;;6.45;1.67;;;22.10;99.80;;;;;;5120485;28;20106;-70
2023/10/13 14:53:59;;;;;;;7.57;1.95;;;22.00;99.90;;;;;;5121054;28;20050;-70
2023/10/13 14:56:26;;;;;;;7.40;1.65;;;21.90;98.60;;;;;;5121173;28;20030;-70
2023/10/13 14:58:53;;;;;;;7.55;1.50;;;21.90;98.00;;;;;;5121085;28;20065;-69
2023/10/13 15:01:21;;;;;;;3.63;1.25;;;21.70;94.70;;;;;;5119163;28;20139;-69
2023/10/13 15:03:58;;;;;;;4.43;1.10;;;21.70;95.80;;;;;;5120293;28;20032;-69
2023/10/13 15:06:28;;;;;;;3.67;1.35;;;21.70;95.30;;;;;;5120429;27;20641;-70
2023/10/13 15:08:56;;;;;;;4.82;1.48;;;21.60;92.20;;;;;;5123514;27;20319;-71
2023/10/13 15:11:26;;;;;;;7.40;1.25;;;21.50;91.90;;;;;;5134038;27;20108;-72
2023/10/13 15:13:53;;;;;;;7.50;1.38;;;21.50;91.30;;;;;;5120902;28;20030;-73
2023/10/13 15:16:24;;;;;;;7.40;1.48;;;21.40;92.10;;;;;;5121046;28;20394;-73
2023/10/13 15:18:52;;;;;;;5.93;1.10;;;21.40;92.50;;;;;;5120844;27;20023;-71
2023/10/13 15:21:39;;;;;;;6.53;1.13;;;21.40;92.20;;;;;;5120428;28;20503;-73
2023/10/13 15:24:21;;;;;;;6.82;1.30;;;21.40;93.00;;;;;;5119651;28;20023;-70
2023/10/13 15:26:52;;;;;;;4.72;1.10;;;21.50;93.20;;;;;;5115337;27;20369;-69
2023/10/13 15:29:24;;;;;;;6.47;1.23;;;21.50;91.50;;;;;;5117381;28;20024;-71
2023/10/13 15:32:05;;;;;;;5.88;1.30;;;21.60;92.20;;;;;;5120004;28;20507;-71
2023/10/13 15:34:31;;;;;;;5.88;1.50;;;21.50;92.40;;;;;;5118859;28;20030;-72
2023/10/13 15:36:58;;;;;;;7.57;1.40;;;21.50;94.60;;;;;;5119799;28;20022;-72
2023/10/13 15:39:28;;;;;;;5.43;1.20;;;21.50;93.50;;;;;;5120169;28;20024;-75
2023/10/13 15:42:02;;;;;;;5.72;1.10;;;21.40;93.00;;;;;;5113263;28;20008;-72
2023/10/13 15:44:30;;;;;;;6.22;1.17;;;21.40;93.90;;;;;;5101780;28;20115;-75
2023/10/13 15:46:57;;;;;;;6.28;1.02;;;21.30;93.10;;;;;;5119841;28;20094;-74
2023/10/13 15:49:24;;;;;;;6.20;1.08;;;21.20;92.60;;;;;;5120275;28;20047;-72
2023/10/13 15:51:49;;;;;;;6.55;1.30;;;21.10;92.60;;;;;;5101965;28;20047;-72
2023/10/13 15:54:17;;;;;;;6.32;1.20;;;21.00;93.10;;;;;;5120338;28;20035;-71
2023/10/13 15:56:43;;;;;;;5.10;0.93;;;20.90;93.80;;;;;;5120171;28;20016;-72
2023/10/13 15:59:09;;;;;;;6.13;1.08;;;21.00;94.20;;;;;;5102741;28;20027;-72
2023/10/13 16:01:35;;;;;;;5.82;1.25;;;20.90;93.90;;;;;;5118594;28;20039;-71
2023/10/13 16:04:10;;;;;;;7.35;1.35;;;20.90;94.00;;;;;;5119663;28;20023;-73
2023/10/13 16:06:39;;;;;;;5.88;1.10;;;20.90;94.00;;;;;;5107188;28;20028;-72
2023/10/13 16:09:13;;;;;;;5.43;1.00;;;20.90;93.70;;;;;;5120210;27;20019;-73
2023/10/13 16:11:40;;;;;;;7.07;1.10;;;20.90;93.60;;;;;;5101118;28;20047;-72
2023/10/13 16:14:10;;;;;;;9.75;1.60;;;20.90;94.00;;;;;;5119387;28;20027;-73
2023/10/13 16:16:36;;;;;;;5.90;1.30;;;21.00;94.30;;;;;;5118888;28;20023;-72
2023/10/13 16:19:06;;;;;;;8.68;1.30;;;21.00;94.30;;;;;;5102732;28;20035;-72
2023/10/13 16:21:38;;;;;;;4.57;1.10;;;20.90;94.70;;;;;;5118782;28;20047;-73
2023/10/13 16:24:10;;;;;;;6.47;1.23;;;20.80;94.90;;;;;;5119135;28;20066;-72
2023/10/13 16:26:36;;;;;;;7.63;1.10;;;20.70;95.80;;;;;;5116566;28;20814;-75
2023/10/13 16:29:02;;;;;;;7.43;1.33;;;20.70;96.40;;;;;;5119166;28;20015;-73
2023/10/13 16:31:28;;;;;;;5.75;1.50;;;20.70;96.90;;;;;;5118841;28;20076;-74
2023/10/13 16:33:58;;;;;;;7.70;1.23;;;20.60;97.00;;;;;;5100343;28;20488;-73
2023/10/13 16:36:25;;;;;;;5.10;1.13;;;20.60;96.90;;;;;;5118992;28;20035;-73
2023/10/13 16:38:51;;;;;;;5.78;1.20;;;20.60;97.00;;;;;;5118990;28;20038;-73
2023/10/13 16:41:16;;;;;;;5.82;1.10;;;20.50;96.00;;;;;;5100861;28;20027;-72
2023/10/13 16:43:42;;;;;;;5.35;1.45;;;20.50;96.10;;;;;;5118861;28;20027;-72
2023/10/13 16:46:12;;;;;;;7.55;1.40;;;20.50;95.60;;;;;;5100360;28;20024;-71
2023/10/13 16:48:39;;;;;;;5.72;1.02;;;20.40;96.10;;;;;;5098319;28;20015;-71